sensor_id;sensor_type;location;lat;lon;timestamp;temperature;humidity
47336;DHT22;33068;51.990;5.926;2023-07-13T00:02:22;15.20;99.90
47336;DHT22;33068;51.990;5.926;2023-07-13T00:04:49;15.20;99.90
47336;DHT22;33068;51.990;5.926;2023-07-13T00:07:16;15.30;99.90
47336;DHT22;33068;51.990;5.926;2023-07-13T00:09:45;15.20;99.90
47336;DHT22;33068;51.990;5.926;2023-07-13T00:12:24;15.20;99.90
47336;DHT22;33068;51.990;5.926;2023-07-13T00:14:53;15.20;99.90
47336;DHT22;33068;51.990;5.926;2023-07-13T00:17:20;15.10;99.90
47336;DHT22;33068;51.990;5.926;2023-07-13T00:19:47;15.10;99.90
47336;DHT22;33068;51.990;5.926;2023-07-13T00:22:14;15.10;99.90
47336;DHT22;33068;51.990;5.926;2023-07-13T00:24:44;15.10;99.90
47336;DHT22;33068;51.990;5.926;2023-07-13T00:27:11;15.20;99.90
47336;DHT22;33068;51.990;5.926;2023-07-13T00:29:39;15.30;99.90
47336;DHT22;33068;51.990;5.926;2023-07-13T00:32:08;15.30;99.90
47336;DHT22;33068;51.990;5.926;2023-07-13T00:34:37;15.30;99.90
47336;DHT22;33068;51.990;5.926;2023-07-13T00:37:06;15.20;99.90
47336;DHT22;33068;51.990;5.926;2023-07-13T00:39:35;15.20;99.90
47336;DHT22;33068;51.990;5.926;2023-07-13T00:42:03;15.20;99.90
47336;DHT22;33068;51.990;5.926;2023-07-13T00:44:31;15.10;99.90
47336;DHT22;33068;51.990;5.926;2023-07-13T00:46:58;15.10;99.90
47336;DHT22;33068;51.990;5.926;2023-07-13T00:49:29;15.00;99.90
47336;DHT22;33068;51.990;5.926;2023-07-13T00:52:00;15.00;99.90
47336;DHT22;33068;51.990;5.926;2023-07-13T00:54:31;15.00;99.90
47336;DHT22;33068;51.990;5.926;2023-07-13T00:57:03;15.00;99.90
47336;DHT22;33068;51.990;5.926;2023-07-13T00:59:31;14.90;99.90
47336;DHT22;33068;51.990;5.926;2023-07-13T01:01:59;14.90;99.90
47336;DHT22;33068;51.990;5.926;2023-07-13T01:04:29;14.90;99.90
47336;DHT22;33068;51.990;5.926;2023-07-13T01:06:56;14.90;99.90
47336;DHT22;33068;51.990;5.926;2023-07-13T01:09:26;14.80;99.90
47336;DHT22;33068;51.990;5.926;2023-07-13T01:11:53;14.80;99.90
47336;DHT22;33068;51.990;5.926;2023-07-13T01:14:20;14.80;99.90
47336;DHT22;33068;51.990;5.926;2023-07-13T01:16:48;14.80;99.90
47336;DHT22;33068;51.990;5.926;2023-07-13T01:19:25;14.80;99.90
47336;DHT22;33068;51.990;5.926;2023-07-13T01:22:04;14.90;99.90
47336;DHT22;33068;51.990;5.926;2023-07-13T01:24:35;14.80;99.90
47336;DHT22;33068;51.990;5.926;2023-07-13T01:27:03;14.80;99.90
47336;DHT22;33068;51.990;5.926;2023-07-13T01:29:35;14.80;99.90
47336;DHT22;33068;51.990;5.926;2023-07-13T01:32:08;14.80;99.90
47336;DHT22;33068;51.990;5.926;2023-07-13T01:34:36;14.80;99.90
47336;DHT22;33068;51.990;5.926;2023-07-13T01:37:05;14.80;99.90
47336;DHT22;33068;51.990;5.926;2023-07-13T01:39:33;14.80;99.90
47336;DHT22;33068;51.990;5.926;2023-07-13T01:42:00;14.70;99.90
47336;DHT22;33068;51.990;5.926;2023-07-13T01:44:27;14.70;99.90
47336;DHT22;33068;51.990;5.926;2023-07-13T01:46:54;14.80;99.90
47336;DHT22;33068;51.990;5.926;2023-07-13T01:49:21;14.80;99.90
47336;DHT22;33068;51.990;5.926;2023-07-13T01:51:49;14.80;99.90
47336;DHT22;33068;51.990;5.926;2023-07-13T01:54:17;14.80;99.90
47336;DHT22;33068;51.990;5.926;2023-07-13T01:56:44;14.80;99.90
47336;DHT22;33068;51.990;5.926;2023-07-13T01:59:11;14.80;99.90
47336;DHT22;33068;51.990;5.926;2023-07-13T02:01:38;14.80;99.90
47336;DHT22;33068;51.990;5.926;2023-07-13T02:04:06;14.90;99.90
47336;DHT22;33068;51.990;5.926;2023-07-13T02:06:33;14.80;99.90
47336;DHT22;33068;51.990;5.926;2023-07-13T02:09:00;14.90;99.90
47336;DHT22;33068;51.990;5.926;2023-07-13T02:11:29;14.90;99.90
47336;DHT22;33068;51.990;5.926;2023-07-13T02:13:59;14.90;99.90
47336;DHT22;33068;51.990;5.926;2023-07-13T02:16:26;14.80;99.90
47336;DHT22;33068;51.990;5.926;2023-07-13T02:18:53;14.80;99.90
47336;DHT22;33068;51.990;5.926;2023-07-13T02:21:21;14.80;99.90
47336;DHT22;33068;51.990;5.926;2023-07-13T02:23:51;14.70;99.90
47336;DHT22;33068;51.990;5.926;2023-07-13T02:26:19;14.70;99.90
47336;DHT22;33068;51.990;5.926;2023-07-13T02:28:48;14.70;99.90
47336;DHT22;33068;51.990;5.926;2023-07-13T02:31:16;14.70;99.90
47336;DHT22;33068;51.990;5.926;2023-07-13T02:33:44;14.70;99.90
47336;DHT22;33068;51.990;5.926;2023-07-13T02:36:12;14.60;99.90
47336;DHT22;33068;51.990;5.926;2023-07-13T02:38:39;14.60;99.90
47336;DHT22;33068;51.990;5.926;2023-07-13T02:41:07;14.70;99.90
47336;DHT22;33068;51.990;5.926;2023-07-13T02:43:35;14.70;99.90
47336;DHT22;33068;51.990;5.926;2023-07-13T02:46:04;14.60;99.90
47336;DHT22;33068;51.990;5.926;2023-07-13T02:48:35;14.60;99.90
47336;DHT22;33068;51.990;5.926;2023-07-13T02:51:02;14.60;99.90
47336;DHT22;33068;51.990;5.926;2023-07-13T02:53:30;14.60;99.90
47336;DHT22;33068;51.990;5.926;2023-07-13T02:55:57;14.50;99.90
47336;DHT22;33068;51.990;5.926;2023-07-13T02:58:25;14.50;99.90
47336;DHT22;33068;51.990;5.926;2023-07-13T03:00:52;14.40;99.90
47336;DHT22;33068;51.990;5.926;2023-07-13T03:03:20;14.40;99.90
47336;DHT22;33068;51.990;5.926;2023-07-13T03:05:48;14.50;99.90
47336;DHT22;33068;51.990;5.926;2023-07-13T03:08:16;14.40;99.90
47336;DHT22;33068;51.990;5.926;2023-07-13T03:10:45;14.40;99.90
47336;DHT22;33068;51.990;5.926;2023-07-13T03:13:12;14.40;99.90
47336;DHT22;33068;51.990;5.926;2023-07-13T03:15:39;14.40;99.90
47336;DHT22;33068;51.990;5.926;2023-07-13T03:18:06;14.40;99.90
47336;DHT22;33068;51.990;5.926;2023-07-13T03:20:35;14.40;99.90
47336;DHT22;33068;51.990;5.926;2023-07-13T03:23:03;14.40;99.90
47336;DHT22;33068;51.990;5.926;2023-07-13T03:25:31;14.40;99.90
47336;DHT22;33068;51.990;5.926;2023-07-13T03:28:00;14.40;99.90
47336;DHT22;33068;51.990;5.926;2023-07-13T03:30:27;14.40;99.90
47336;DHT22;33068;51.990;5.926;2023-07-13T03:32:54;14.40;99.90
47336;DHT22;33068;51.990;5.926;2023-07-13T03:35:22;14.40;99.90
47336;DHT22;33068;51.990;5.926;2023-07-13T03:37:51;14.30;99.90
47336;DHT22;33068;51.990;5.926;2023-07-13T03:40:20;14.30;99.90
47336;DHT22;33068;51.990;5.926;2023-07-13T03:42:47;14.30;99.90
47336;DHT22;33068;51.990;5.926;2023-07-13T03:45:16;14.30;99.90
47336;DHT22;33068;51.990;5.926;2023-07-13T03:47:44;14.30;99.90
47336;DHT22;33068;51.990;5.926;2023-07-13T03:50:12;14.30;99.90
47336;DHT22;33068;51.990;5.926;2023-07-13T03:52:39;14.30;99.90
47336;DHT22;33068;51.990;5.926;2023-07-13T03:55:08;14.20;99.90
47336;DHT22;33068;51.990;5.926;2023-07-13T03:57:35;14.20;99.90
47336;DHT22;33068;51.990;5.926;2023-07-13T04:00:04;14.20;99.90
47336;DHT22;33068;51.990;5.926;2023-07-13T04:02:41;14.20;99.90
47336;DHT22;33068;51.990;5.926;2023-07-13T04:05:09;14.20;99.90
47336;DHT22;33068;51.990;5.926;2023-07-13T04:07:36;14.20;99.90
47336;DHT22;33068;51.990;5.926;2023-07-13T04:10:03;14.20;99.90
47336;DHT22;33068;51.990;5.926;2023-07-13T04:12:32;14.20;99.90
47336;DHT22;33068;51.990;5.926;2023-07-13T04:14:59;14.20;99.90
47336;DHT22;33068;51.990;5.926;2023-07-13T04:17:26;14.20;99.90
47336;DHT22;33068;51.990;5.926;2023-07-13T04:19:53;14.20;99.90
47336;DHT22;33068;51.990;5.926;2023-07-13T04:22:20;14.30;99.90
47336;DHT22;33068;51.990;5.926;2023-07-13T04:24:47;14.30;99.90
47336;DHT22;33068;51.990;5.926;2023-07-13T04:27:15;14.30;99.90
47336;DHT22;33068;51.990;5.926;2023-07-13T04:29:43;14.30;99.90
47336;DHT22;33068;51.990;5.926;2023-07-13T04:32:13;14.40;99.90
47336;DHT22;33068;51.990;5.926;2023-07-13T04:34:41;14.50;99.90
47336;DHT22;33068;51.990;5.926;2023-07-13T04:37:08;14.50;99.90
47336;DHT22;33068;51.990;5.926;2023-07-13T04:39:35;14.50;99.90
47336;DHT22;33068;51.990;5.926;2023-07-13T04:42:03;14.50;99.90
47336;DHT22;33068;51.990;5.926;2023-07-13T04:44:30;14.60;99.90
47336;DHT22;33068;51.990;5.926;2023-07-13T04:46:59;14.70;99.90
47336;DHT22;33068;51.990;5.926;2023-07-13T04:49:26;14.80;99.90
47336;DHT22;33068;51.990;5.926;2023-07-13T04:51:53;14.90;99.90
47336;DHT22;33068;51.990;5.926;2023-07-13T04:54:20;14.90;99.90
47336;DHT22;33068;51.990;5.926;2023-07-13T04:56:48;15.00;99.90
47336;DHT22;33068;51.990;5.926;2023-07-13T04:59:15;15.00;99.90
47336;DHT22;33068;51.990;5.926;2023-07-13T05:01:42;15.10;99.90
47336;DHT22;33068;51.990;5.926;2023-07-13T05:04:11;15.10;99.90
47336;DHT22;33068;51.990;5.926;2023-07-13T05:06:38;15.20;99.90
47336;DHT22;33068;51.990;5.926;2023-07-13T05:09:05;15.30;99.90
47336;DHT22;33068;51.990;5.926;2023-07-13T05:11:33;15.30;99.90
47336;DHT22;33068;51.990;5.926;2023-07-13T05:14:00;15.40;99.90
47336;DHT22;33068;51.990;5.926;2023-07-13T05:16:28;15.50;99.90
47336;DHT22;33068;51.990;5.926;2023-07-13T05:18:55;15.50;99.90
47336;DHT22;33068;51.990;5.926;2023-07-13T05:21:23;15.50;99.90
47336;DHT22;33068;51.990;5.926;2023-07-13T05:23:51;15.50;99.90
47336;DHT22;33068;51.990;5.926;2023-07-13T05:26:18;15.60;99.90
47336;DHT22;33068;51.990;5.926;2023-07-13T05:28:46;15.70;99.90
47336;DHT22;33068;51.990;5.926;2023-07-13T05:31:14;15.70;99.90
47336;DHT22;33068;51.990;5.926;2023-07-13T05:33:41;15.80;99.90
47336;DHT22;33068;51.990;5.926;2023-07-13T05:36:08;15.80;99.90
47336;DHT22;33068;51.990;5.926;2023-07-13T05:38:39;15.80;99.90
47336;DHT22;33068;51.990;5.926;2023-07-13T05:41:06;15.90;99.90
47336;DHT22;33068;51.990;5.926;2023-07-13T05:43:33;15.80;99.90
47336;DHT22;33068;51.990;5.926;2023-07-13T05:46:00;15.90;99.90
47336;DHT22;33068;51.990;5.926;2023-07-13T05:48:28;16.00;99.90
47336;DHT22;33068;51.990;5.926;2023-07-13T05:50:55;16.10;99.90
47336;DHT22;33068;51.990;5.926;2023-07-13T05:53:22;16.10;99.90
47336;DHT22;33068;51.990;5.926;2023-07-13T05:55:50;16.20;99.90
47336;DHT22;33068;51.990;5.926;2023-07-13T05:58:19;16.40;99.90
47336;DHT22;33068;51.990;5.926;2023-07-13T06:00:46;16.40;99.90
47336;DHT22;33068;51.990;5.926;2023-07-13T06:03:15;16.50;99.90
47336;DHT22;33068;51.990;5.926;2023-07-13T06:05:43;16.40;99.90
47336;DHT22;33068;51.990;5.926;2023-07-13T06:08:10;16.30;99.90
47336;DHT22;33068;51.990;5.926;2023-07-13T06:10:37;16.40;99.90
47336;DHT22;33068;51.990;5.926;2023-07-13T06:13:05;16.50;99.90
47336;DHT22;33068;51.990;5.926;2023-07-13T06:15:32;16.60;99.90
47336;DHT22;33068;51.990;5.926;2023-07-13T06:17:59;16.60;99.90
47336;DHT22;33068;51.990;5.926;2023-07-13T06:20:27;16.70;99.90
47336;DHT22;33068;51.990;5.926;2023-07-13T06:22:54;16.80;99.90
47336;DHT22;33068;51.990;5.926;2023-07-13T06:25:21;16.90;99.90
47336;DHT22;33068;51.990;5.926;2023-07-13T06:27:49;16.90;99.90
47336;DHT22;33068;51.990;5.926;2023-07-13T06:30:17;16.90;99.90
47336;DHT22;33068;51.990;5.926;2023-07-13T06:32:44;17.00;99.90
47336;DHT22;33068;51.990;5.926;2023-07-13T06:35:11;17.00;99.90
47336;DHT22;33068;51.990;5.926;2023-07-13T06:37:39;17.00;99.90
47336;DHT22;33068;51.990;5.926;2023-07-13T06:40:07;16.90;99.90
47336;DHT22;33068;51.990;5.926;2023-07-13T06:42:35;17.10;99.90
47336;DHT22;33068;51.990;5.926;2023-07-13T06:45:05;17.10;99.90
47336;DHT22;33068;51.990;5.926;2023-07-13T06:47:34;17.20;99.90
47336;DHT22;33068;51.990;5.926;2023-07-13T06:50:01;17.40;99.90
47336;DHT22;33068;51.990;5.926;2023-07-13T06:52:28;17.60;99.90
47336;DHT22;33068;51.990;5.926;2023-07-13T06:54:55;17.70;99.90
47336;DHT22;33068;51.990;5.926;2023-07-13T06:57:22;17.80;99.90
47336;DHT22;33068;51.990;5.926;2023-07-13T06:59:49;17.70;99.90
47336;DHT22;33068;51.990;5.926;2023-07-13T07:02:16;17.80;99.90
47336;DHT22;33068;51.990;5.926;2023-07-13T07:04:45;17.90;99.90
47336;DHT22;33068;51.990;5.926;2023-07-13T07:07:12;17.90;99.90
47336;DHT22;33068;51.990;5.926;2023-07-13T07:09:39;17.90;99.90
47336;DHT22;33068;51.990;5.926;2023-07-13T07:12:07;17.90;99.90
47336;DHT22;33068;51.990;5.926;2023-07-13T07:14:34;18.00;99.90
47336;DHT22;33068;51.990;5.926;2023-07-13T07:17:01;18.10;99.90
47336;DHT22;33068;51.990;5.926;2023-07-13T07:19:30;18.20;99.90
47336;DHT22;33068;51.990;5.926;2023-07-13T07:21:58;18.20;99.90
47336;DHT22;33068;51.990;5.926;2023-07-13T07:24:25;18.40;99.90
47336;DHT22;33068;51.990;5.926;2023-07-13T07:26:52;18.40;99.90
47336;DHT22;33068;51.990;5.926;2023-07-13T07:29:22;18.40;99.90
47336;DHT22;33068;51.990;5.926;2023-07-13T07:31:52;18.40;99.90
47336;DHT22;33068;51.990;5.926;2023-07-13T07:34:19;18.30;99.90
47336;DHT22;33068;51.990;5.926;2023-07-13T07:36:47;18.30;99.90
47336;DHT22;33068;51.990;5.926;2023-07-13T07:39:15;18.50;99.90
47336;DHT22;33068;51.990;5.926;2023-07-13T07:41:43;18.50;99.90
47336;DHT22;33068;51.990;5.926;2023-07-13T07:44:10;18.50;99.90
47336;DHT22;33068;51.990;5.926;2023-07-13T07:46:37;18.60;99.90
47336;DHT22;33068;51.990;5.926;2023-07-13T07:49:06;18.60;99.90
47336;DHT22;33068;51.990;5.926;2023-07-13T07:51:35;18.80;99.90
47336;DHT22;33068;51.990;5.926;2023-07-13T07:54:02;18.90;99.90
47336;DHT22;33068;51.990;5.926;2023-07-13T07:56:31;19.10;99.90
47336;DHT22;33068;51.990;5.926;2023-07-13T07:58:59;19.30;99.90
47336;DHT22;33068;51.990;5.926;2023-07-13T08:01:26;19.30;99.90
47336;DHT22;33068;51.990;5.926;2023-07-13T08:04:01;19.20;99.90
47336;DHT22;33068;51.990;5.926;2023-07-13T08:06:31;19.30;99.90
47336;DHT22;33068;51.990;5.926;2023-07-13T08:08:59;19.40;99.90
47336;DHT22;33068;51.990;5.926;2023-07-13T08:11:27;19.90;99.90
47336;DHT22;33068;51.990;5.926;2023-07-13T08:13:55;20.30;99.90
47336;DHT22;33068;51.990;5.926;2023-07-13T08:16:23;20.70;99.90
47336;DHT22;33068;51.990;5.926;2023-07-13T08:18:50;21.40;99.90
47336;DHT22;33068;51.990;5.926;2023-07-13T08:21:17;21.90;99.90
47336;DHT22;33068;51.990;5.926;2023-07-13T08:23:45;22.40;99.90
47336;DHT22;33068;51.990;5.926;2023-07-13T08:26:13;22.10;99.90
47336;DHT22;33068;51.990;5.926;2023-07-13T08:28:40;22.10;99.90
47336;DHT22;33068;51.990;5.926;2023-07-13T08:31:09;22.20;99.90
47336;DHT22;33068;51.990;5.926;2023-07-13T08:33:37;22.00;99.90
47336;DHT22;33068;51.990;5.926;2023-07-13T08:36:06;21.80;99.90
47336;DHT22;33068;51.990;5.926;2023-07-13T08:38:34;22.30;99.90
47336;DHT22;33068;51.990;5.926;2023-07-13T08:41:09;22.70;99.90
47336;DHT22;33068;51.990;5.926;2023-07-13T08:43:37;22.90;99.90
47336;DHT22;33068;51.990;5.926;2023-07-13T08:46:11;22.40;99.90
47336;DHT22;33068;51.990;5.926;2023-07-13T08:48:43;21.70;99.90
47336;DHT22;33068;51.990;5.926;2023-07-13T08:51:28;21.60;99.90
47336;DHT22;33068;51.990;5.926;2023-07-13T08:54:00;21.40;99.90
47336;DHT22;33068;51.990;5.926;2023-07-13T08:56:29;21.00;99.90
47336;DHT22;33068;51.990;5.926;2023-07-13T08:59:00;20.50;99.90
47336;DHT22;33068;51.990;5.926;2023-07-13T09:01:45;20.10;99.90
47336;DHT22;33068;51.990;5.926;2023-07-13T09:04:16;20.00;99.90
47336;DHT22;33068;51.990;5.926;2023-07-13T09:06:55;20.00;99.90
47336;DHT22;33068;51.990;5.926;2023-07-13T09:09:29;20.00;99.90
47336;DHT22;33068;51.990;5.926;2023-07-13T09:12:09;20.30;99.90
47336;DHT22;33068;51.990;5.926;2023-07-13T09:14:44;21.40;99.90
47336;DHT22;33068;51.990;5.926;2023-07-13T09:17:17;22.30;99.90
47336;DHT22;33068;51.990;5.926;2023-07-13T09:19:49;23.00;99.90
47336;DHT22;33068;51.990;5.926;2023-07-13T09:22:20;22.90;99.90
47336;DHT22;33068;51.990;5.926;2023-07-13T09:24:54;22.30;99.90
47336;DHT22;33068;51.990;5.926;2023-07-13T09:27:27;22.20;99.90
47336;DHT22;33068;51.990;5.926;2023-07-13T09:30:03;22.10;99.90
47336;DHT22;33068;51.990;5.926;2023-07-13T09:32:39;22.00;99.90
47336;DHT22;33068;51.990;5.926;2023-07-13T09:35:11;21.90;99.90
47336;DHT22;33068;51.990;5.926;2023-07-13T09:37:39;21.70;99.90
47336;DHT22;33068;51.990;5.926;2023-07-13T09:40:12;21.30;99.90
47336;DHT22;33068;51.990;5.926;2023-07-13T09:42:41;20.60;99.90
47336;DHT22;33068;51.990;5.926;2023-07-13T09:45:09;20.00;99.90
47336;DHT22;33068;51.990;5.926;2023-07-13T09:47:40;19.60;99.90
47336;DHT22;33068;51.990;5.926;2023-07-13T09:50:10;19.50;99.90
47336;DHT22;33068;51.990;5.926;2023-07-13T09:52:44;19.60;99.90
47336;DHT22;33068;51.990;5.926;2023-07-13T09:55:26;19.70;99.90
47336;DHT22;33068;51.990;5.926;2023-07-13T09:57:53;19.70;99.90
47336;DHT22;33068;51.990;5.926;2023-07-13T10:00:22;19.90;99.90
47336;DHT22;33068;51.990;5.926;2023-07-13T10:03:01;19.80;99.90
47336;DHT22;33068;51.990;5.926;2023-07-13T10:05:37;19.80;99.90
47336;DHT22;33068;51.990;5.926;2023-07-13T10:08:04;19.80;99.90
47336;DHT22;33068;51.990;5.926;2023-07-13T10:10:33;20.00;99.90
47336;DHT22;33068;51.990;5.926;2023-07-13T10:13:02;20.30;99.90
47336;DHT22;33068;51.990;5.926;2023-07-13T10:15:31;20.70;99.90
47336;DHT22;33068;51.990;5.926;2023-07-13T10:18:01;21.10;99.90
47336;DHT22;33068;51.990;5.926;2023-07-13T10:20:28;21.70;99.90
47336;DHT22;33068;51.990;5.926;2023-07-13T10:23:02;22.10;99.90
47336;DHT22;33068;51.990;5.926;2023-07-13T10:25:32;22.50;99.90
47336;DHT22;33068;51.990;5.926;2023-07-13T10:28:11;22.70;99.90
47336;DHT22;33068;51.990;5.926;2023-07-13T10:30:43;22.80;99.90
47336;DHT22;33068;51.990;5.926;2023-07-13T10:33:14;23.10;99.90
47336;DHT22;33068;51.990;5.926;2023-07-13T10:35:43;23.20;99.90
47336;DHT22;33068;51.990;5.926;2023-07-13T10:38:14;23.10;99.90
47336;DHT22;33068;51.990;5.926;2023-07-13T10:40:45;22.70;99.90
47336;DHT22;33068;51.990;5.926;2023-07-13T10:43:18;22.10;99.90
47336;DHT22;33068;51.990;5.926;2023-07-13T10:45:48;22.10;99.90
47336;DHT22;33068;51.990;5.926;2023-07-13T10:48:17;21.70;99.90
47336;DHT22;33068;51.990;5.926;2023-07-13T10:50:46;21.30;99.90
47336;DHT22;33068;51.990;5.926;2023-07-13T10:53:20;21.20;99.90
47336;DHT22;33068;51.990;5.926;2023-07-13T10:55:58;20.80;99.90
47336;DHT22;33068;51.990;5.926;2023-07-13T10:58:31;20.40;99.90
47336;DHT22;33068;51.990;5.926;2023-07-13T11:01:03;20.50;99.90
47336;DHT22;33068;51.990;5.926;2023-07-13T11:03:36;21.20;99.90
47336;DHT22;33068;51.990;5.926;2023-07-13T11:06:08;21.20;99.90
47336;DHT22;33068;51.990;5.926;2023-07-13T11:08:38;21.50;99.90
47336;DHT22;33068;51.990;5.926;2023-07-13T11:11:34;21.90;99.90
47336;DHT22;33068;51.990;5.926;2023-07-13T11:14:02;22.00;99.90
47336;DHT22;33068;51.990;5.926;2023-07-13T11:16:36;22.40;99.90
47336;DHT22;33068;51.990;5.926;2023-07-13T11:19:28;22.30;99.90
47336;DHT22;33068;51.990;5.926;2023-07-13T11:22:19;22.40;99.90
47336;DHT22;33068;51.990;5.926;2023-07-13T11:24:58;22.20;99.90
47336;DHT22;33068;51.990;5.926;2023-07-13T11:27:36;21.70;99.90
47336;DHT22;33068;51.990;5.926;2023-07-13T11:30:13;21.20;99.90
47336;DHT22;33068;51.990;5.926;2023-07-13T11:32:53;20.90;99.90
47336;DHT22;33068;51.990;5.926;2023-07-13T11:35:36;20.90;99.90
47336;DHT22;33068;51.990;5.926;2023-07-13T11:38:13;21.10;99.90
47336;DHT22;33068;51.990;5.926;2023-07-13T11:40:43;21.60;99.90
47336;DHT22;33068;51.990;5.926;2023-07-13T11:43:13;22.10;99.90
47336;DHT22;33068;51.990;5.926;2023-07-13T11:45:41;22.20;99.90
47336;DHT22;33068;51.990;5.926;2023-07-13T11:48:19;22.50;99.90
47336;DHT22;33068;51.990;5.926;2023-07-13T11:50:56;23.00;99.90
47336;DHT22;33068;51.990;5.926;2023-07-13T11:53:27;23.30;99.90
47336;DHT22;33068;51.990;5.926;2023-07-13T11:55:55;23.70;99.90
47336;DHT22;33068;51.990;5.926;2023-07-13T11:58:25;24.00;99.90
47336;DHT22;33068;51.990;5.926;2023-07-13T12:00:55;24.00;98.70
47336;DHT22;33068;51.990;5.926;2023-07-13T12:03:25;23.30;99.90
47336;DHT22;33068;51.990;5.926;2023-07-13T12:06:02;22.90;99.90
47336;DHT22;33068;51.990;5.926;2023-07-13T12:08:31;22.60;99.90
47336;DHT22;33068;51.990;5.926;2023-07-13T12:11:14;22.40;99.90
47336;DHT22;33068;51.990;5.926;2023-07-13T12:13:43;22.20;99.90
47336;DHT22;33068;51.990;5.926;2023-07-13T12:16:13;21.90;99.90
47336;DHT22;33068;51.990;5.926;2023-07-13T12:18:43;21.90;99.90
47336;DHT22;33068;51.990;5.926;2023-07-13T12:21:16;22.00;99.90
47336;DHT22;33068;51.990;5.926;2023-07-13T12:23:44;22.40;99.90
47336;DHT22;33068;51.990;5.926;2023-07-13T12:26:15;23.00;99.90
47336;DHT22;33068;51.990;5.926;2023-07-13T12:28:46;23.30;99.90
47336;DHT22;33068;51.990;5.926;2023-07-13T12:31:26;23.40;99.90
47336;DHT22;33068;51.990;5.926;2023-07-13T12:33:58;23.90;99.90
47336;DHT22;33068;51.990;5.926;2023-07-13T12:36:31;24.40;99.90
47336;DHT22;33068;51.990;5.926;2023-07-13T12:39:03;24.50;99.90
47336;DHT22;33068;51.990;5.926;2023-07-13T12:41:31;24.60;99.90
47336;DHT22;33068;51.990;5.926;2023-07-13T12:43:59;24.60;99.90
47336;DHT22;33068;51.990;5.926;2023-07-13T12:46:27;24.30;99.90
47336;DHT22;33068;51.990;5.926;2023-07-13T12:48:57;23.80;99.90
47336;DHT22;33068;51.990;5.926;2023-07-13T12:51:27;23.50;99.90
47336;DHT22;33068;51.990;5.926;2023-07-13T12:56:40;23.00;99.90
47336;DHT22;33068;51.990;5.926;2023-07-13T12:59:15;22.70;99.90
47336;DHT22;33068;51.990;5.926;2023-07-13T13:01:43;22.30;99.90
47336;DHT22;33068;51.990;5.926;2023-07-13T13:04:11;22.10;99.90
47336;DHT22;33068;51.990;5.926;2023-07-13T13:06:40;21.90;99.90
47336;DHT22;33068;51.990;5.926;2023-07-13T13:09:12;21.80;99.90
47336;DHT22;33068;51.990;5.926;2023-07-13T13:11:40;21.70;99.90
47336;DHT22;33068;51.990;5.926;2023-07-13T13:14:07;21.70;99.90
47336;DHT22;33068;51.990;5.926;2023-07-13T13:16:38;21.90;99.90
47336;DHT22;33068;51.990;5.926;2023-07-13T13:19:13;22.10;99.90
47336;DHT22;33068;51.990;5.926;2023-07-13T13:21:46;22.40;99.90
47336;DHT22;33068;51.990;5.926;2023-07-13T13:24:14;22.50;99.90
47336;DHT22;33068;51.990;5.926;2023-07-13T13:26:43;22.50;99.90
47336;DHT22;33068;51.990;5.926;2023-07-13T13:29:15;22.50;99.90
47336;DHT22;33068;51.990;5.926;2023-07-13T13:31:43;22.60;99.90
47336;DHT22;33068;51.990;5.926;2023-07-13T13:34:11;23.00;99.90
47336;DHT22;33068;51.990;5.926;2023-07-13T13:36:39;23.70;99.90
47336;DHT22;33068;51.990;5.926;2023-07-13T13:39:19;23.70;99.90
47336;DHT22;33068;51.990;5.926;2023-07-13T13:41:47;23.50;99.90
47336;DHT22;33068;51.990;5.926;2023-07-13T13:44:15;23.20;99.90
47336;DHT22;33068;51.990;5.926;2023-07-13T13:46:45;23.00;99.90
47336;DHT22;33068;51.990;5.926;2023-07-13T13:49:15;23.50;99.90
47336;DHT22;33068;51.990;5.926;2023-07-13T13:51:43;23.70;99.90
47336;DHT22;33068;51.990;5.926;2023-07-13T13:54:16;23.80;99.90
47336;DHT22;33068;51.990;5.926;2023-07-13T13:56:45;23.90;99.90
47336;DHT22;33068;51.990;5.926;2023-07-13T13:59:13;23.60;97.70
47336;DHT22;33068;51.990;5.926;2023-07-13T14:01:43;24.00;96.80
47336;DHT22;33068;51.990;5.926;2023-07-13T14:04:15;24.20;93.10
47336;DHT22;33068;51.990;5.926;2023-07-13T14:06:43;24.70;94.60
47336;DHT22;33068;51.990;5.926;2023-07-13T14:09:18;25.30;94.40
47336;DHT22;33068;51.990;5.926;2023-07-13T14:11:47;25.40;93.40
47336;DHT22;33068;51.990;5.926;2023-07-13T14:14:16;25.10;93.80
47336;DHT22;33068;51.990;5.926;2023-07-13T14:16:45;25.10;94.40
47336;DHT22;33068;51.990;5.926;2023-07-13T14:19:13;24.90;93.20
47336;DHT22;33068;51.990;5.926;2023-07-13T14:21:41;24.40;92.80
47336;DHT22;33068;51.990;5.926;2023-07-13T14:24:08;24.20;94.40
47336;DHT22;33068;51.990;5.926;2023-07-13T14:26:38;24.80;94.00
47336;DHT22;33068;51.990;5.926;2023-07-13T14:29:13;25.10;93.20
47336;DHT22;33068;51.990;5.926;2023-07-13T14:31:41;25.00;94.30
47336;DHT22;33068;51.990;5.926;2023-07-13T14:34:10;25.40;92.00
47336;DHT22;33068;51.990;5.926;2023-07-13T14:36:39;26.00;92.30
47336;DHT22;33068;51.990;5.926;2023-07-13T14:39:12;25.90;90.80
47336;DHT22;33068;51.990;5.926;2023-07-13T14:41:41;25.20;91.90
47336;DHT22;33068;51.990;5.926;2023-07-13T14:44:11;24.90;92.70
47336;DHT22;33068;51.990;5.926;2023-07-13T14:46:39;24.40;92.60
47336;DHT22;33068;51.990;5.926;2023-07-13T14:49:12;24.20;94.60
47336;DHT22;33068;51.990;5.926;2023-07-13T14:51:40;24.20;92.50
47336;DHT22;33068;51.990;5.926;2023-07-13T14:54:08;24.30;94.10
47336;DHT22;33068;51.990;5.926;2023-07-13T14:56:38;24.10;92.80
47336;DHT22;33068;51.990;5.926;2023-07-13T14:59:07;24.00;94.20
47336;DHT22;33068;51.990;5.926;2023-07-13T15:01:34;23.90;94.80
47336;DHT22;33068;51.990;5.926;2023-07-13T15:04:02;23.70;95.20
47336;DHT22;33068;51.990;5.926;2023-07-13T15:06:30;23.60;95.60
47336;DHT22;33068;51.990;5.926;2023-07-13T15:08:58;23.40;93.60
47336;DHT22;33068;51.990;5.926;2023-07-13T15:11:25;23.30;94.10
47336;DHT22;33068;51.990;5.926;2023-07-13T15:13:52;23.20;94.40
47336;DHT22;33068;51.990;5.926;2023-07-13T15:16:23;23.20;96.00
47336;DHT22;33068;51.990;5.926;2023-07-13T15:18:51;23.20;94.90
47336;DHT22;33068;51.990;5.926;2023-07-13T15:21:21;23.20;95.50
47336;DHT22;33068;51.990;5.926;2023-07-13T15:23:48;23.10;95.10
47336;DHT22;33068;51.990;5.926;2023-07-13T15:26:18;23.00;94.60
47336;DHT22;33068;51.990;5.926;2023-07-13T15:28:46;22.80;95.50
47336;DHT22;33068;51.990;5.926;2023-07-13T15:31:25;22.80;95.60
47336;DHT22;33068;51.990;5.926;2023-07-13T15:33:55;22.90;96.40
47336;DHT22;33068;51.990;5.926;2023-07-13T15:36:23;22.80;96.00
47336;DHT22;33068;51.990;5.926;2023-07-13T15:38:52;22.70;95.20
47336;DHT22;33068;51.990;5.926;2023-07-13T15:41:22;22.60;97.60
47336;DHT22;33068;51.990;5.926;2023-07-13T15:43:50;22.60;97.10
47336;DHT22;33068;51.990;5.926;2023-07-13T15:46:18;22.60;97.30
47336;DHT22;33068;51.990;5.926;2023-07-13T15:48:48;22.60;98.20